createdAt,value
2019-04-11T00:00:19.628Z,29.77
2019-04-11T00:02:55.271Z,38.80
2019-04-11T00:05:28.593Z,39.48
2019-04-11T00:08:01.752Z,65.45
2019-04-11T00:10:35.353Z,42.33
2019-04-11T00:13:18.974Z,32.70
2019-04-11T00:15:44.479Z,34.13
2019-04-11T00:18:16.645Z,36.77
2019-04-11T00:20:49.015Z,33.42
2019-04-11T00:23:20.244Z,33.00
2019-04-11T00:25:52.789Z,29.37
2019-04-11T00:28:24.061Z,31.30
2019-04-11T00:30:56.669Z,31.70
2019-04-11T00:33:29.873Z,35.95
2019-04-11T00:36:01.218Z,34.85
2019-04-11T00:38:34.131Z,34.43
2019-04-11T00:41:07.869Z,42.62
2019-04-11T00:43:42.194Z,46.48
2019-04-11T00:46:13.218Z,44.65
2019-04-11T00:48:48.111Z,43.80
2019-04-11T00:51:20.364Z,48.17
2019-04-11T00:53:54.467Z,58.25
2019-04-11T00:56:26.173Z,49.63
2019-04-11T00:58:58.203Z,58.52
2019-04-11T01:01:33.616Z,51.25
2019-04-11T01:04:05.784Z,38.30
2019-04-11T01:06:38.363Z,37.78
2019-04-11T01:09:13.243Z,32.53
2019-04-11T01:11:45.793Z,31.52
2019-04-11T01:14:18.496Z,33.38
2019-04-11T01:16:52.680Z,31.70
2019-04-11T01:19:25.286Z,31.45
2019-04-11T01:21:59.233Z,35.30
2019-04-11T01:24:31.521Z,32.98
2019-04-11T01:27:03.518Z,31.93
2019-04-11T01:29:37.771Z,37.93
2019-04-11T01:32:10.541Z,32.03
2019-04-11T01:34:42.872Z,33.15
2019-04-11T01:37:13.723Z,29.70
2019-04-11T01:39:47.395Z,31.95
2019-04-11T01:42:22.825Z,30.05
2019-04-11T01:44:55.339Z,31.93
2019-04-11T01:47:28.936Z,32.58
2019-04-11T01:50:01.387Z,30.70
2019-04-11T01:52:34.158Z,35.63
2019-04-11T01:55:05.695Z,33.58
2019-04-11T01:57:38.112Z,32.98
2019-04-11T02:00:12.225Z,32.33
2019-04-11T02:02:46.434Z,28.95
2019-04-11T02:05:20.890Z,36.17
2019-04-11T02:07:55.282Z,33.33
2019-04-11T02:10:26.557Z,33.67
2019-04-11T02:12:59.522Z,34.45
2019-04-11T02:15:32.418Z,33.45
2019-04-11T02:18:07.479Z,30.60
2019-04-11T02:23:17.164Z,31.30
2019-04-11T02:25:52.530Z,26.12
2019-04-11T02:28:24.427Z,26.75
2019-04-11T02:30:57.052Z,26.05
2019-04-11T02:33:28.438Z,26.05
2019-04-11T02:36:05.084Z,27.32
2019-04-11T02:38:37.324Z,29.15
2019-04-11T02:41:12.509Z,29.40
2019-04-11T02:43:44.436Z,28.42
2019-04-11T02:46:24.591Z,29.57
2019-04-11T02:48:49.891Z,31.50
2019-04-11T02:51:24.819Z,28.52
2019-04-11T02:53:58.803Z,32.03
2019-04-11T02:56:31.239Z,30.27
2019-04-11T02:59:04.474Z,30.25
2019-04-11T03:01:37.046Z,30.15
2019-04-11T03:04:12.733Z,32.88
2019-04-11T03:06:45.758Z,31.52
2019-04-11T03:09:19.841Z,29.18
2019-04-11T03:11:51.878Z,30.57
2019-04-11T03:14:27.621Z,30.48
2019-04-11T03:17:08.213Z,30.43
2019-04-11T03:19:44.046Z,30.32
2019-04-11T03:22:05.644Z,33.08
2019-04-11T03:24:38.382Z,30.12
2019-04-11T03:27:12.219Z,29.65
2019-04-11T03:29:45.249Z,33.08
2019-04-11T03:33:06.405Z,29.77
2019-04-11T03:37:49.939Z,29.30
2019-04-11T03:40:19.525Z,30.68
2019-04-11T03:42:42.963Z,30.10
2019-04-11T03:45:31.112Z,30.12
2019-04-11T03:47:59.163Z,32.10
2019-04-11T03:50:18.827Z,31.37
2019-04-11T03:52:49.326Z,31.90
2019-04-11T03:55:23.404Z,31.60
2019-04-11T03:57:58.493Z,30.52
2019-04-11T04:00:35.465Z,32.45
2019-04-11T04:03:03.741Z,31.20
2019-04-11T04:05:36.819Z,30.85
2019-04-11T04:08:10.756Z,31.95
2019-04-11T04:10:43.641Z,30.52
2019-04-11T04:13:20.577Z,32.33
2019-04-11T04:16:04.182Z,31.70
2019-04-11T04:21:01.922Z,30.75
2019-04-11T04:23:35.948Z,31.00
2019-04-11T04:26:12.255Z,31.35
2019-04-11T04:28:45.326Z,34.18
2019-04-11T04:31:18.511Z,31.97
2019-04-11T04:33:53.411Z,30.30
2019-04-11T04:36:27.266Z,30.62
2019-04-11T04:38:59.266Z,32.05
2019-04-11T04:41:39.420Z,34.08
2019-04-11T04:44:06.462Z,31.00
2019-04-11T04:46:57.198Z,30.80
2019-04-11T04:49:15.315Z,29.87
2019-04-11T04:51:47.823Z,29.32
2019-04-11T04:54:21.996Z,33.25
2019-04-11T04:56:55.174Z,29.90
2019-04-11T04:59:27.852Z,31.02
2019-04-11T05:02:01.552Z,32.13
2019-04-11T05:04:36.076Z,29.07
2019-04-11T05:07:09.623Z,29.40
2019-04-11T05:09:42.661Z,30.20
2019-04-11T05:12:16.299Z,27.15
2019-04-11T05:14:51.996Z,27.27
2019-04-11T05:17:28.761Z,28.10
2019-04-11T05:20:00.239Z,27.73
2019-04-11T05:22:33.205Z,28.52
2019-04-11T05:25:07.035Z,26.93
2019-04-11T05:27:39.801Z,27.98
2019-04-11T05:30:12.303Z,27.52
2019-04-11T05:32:45.211Z,27.75
2019-04-11T05:35:18.524Z,26.25
2019-04-11T05:37:51.418Z,26.30
2019-04-11T05:40:23.943Z,25.97
2019-04-11T05:42:57.527Z,25.40
2019-04-11T05:45:30.153Z,23.80
2019-04-11T05:48:03.520Z,24.37
2019-04-11T05:50:36.131Z,27.15
2019-04-11T05:53:10.384Z,26.02
2019-04-11T05:55:45.292Z,23.83
2019-04-11T05:58:15.992Z,25.43
2019-04-11T06:00:49.783Z,24.32
2019-04-11T06:03:22.055Z,27.15
2019-04-11T06:05:59.911Z,26.62
2019-04-11T06:08:30.286Z,26.57
2019-04-11T06:11:04.681Z,26.12
2019-04-11T06:13:39.128Z,25.35
2019-04-11T06:16:14.607Z,28.10
2019-04-11T06:18:50.048Z,25.27
2019-04-11T06:21:24.276Z,25.82
2019-04-11T06:24:01.409Z,24.75
2019-04-11T06:26:41.141Z,24.77
2019-04-11T06:29:20.179Z,23.47
2019-04-11T06:31:51.519Z,25.13
2019-04-11T06:34:25.538Z,24.52
2019-04-11T06:36:59.222Z,24.30
2019-04-11T06:39:33.449Z,25.13
2019-04-11T06:42:05.897Z,25.02
2019-04-11T06:44:39.778Z,23.55
2019-04-11T06:47:16.688Z,25.62
2019-04-11T06:49:50.992Z,28.77
2019-04-11T06:52:24.341Z,28.27
2019-04-11T06:54:59.409Z,23.92
2019-04-11T06:57:32.703Z,24.02
2019-04-11T07:00:07.279Z,26.97
2019-04-11T07:05:16.525Z,22.50
2019-04-11T07:07:51.498Z,22.20
2019-04-11T07:10:24.596Z,22.93
2019-04-11T07:12:59.327Z,23.67
2019-04-11T07:15:33.640Z,24.92
2019-04-11T07:18:09.757Z,25.30
2019-04-11T07:20:43.479Z,24.50
2019-04-11T07:23:17.663Z,24.43
2019-04-11T07:25:50.228Z,24.77
2019-04-11T07:28:25.254Z,24.07
2019-04-11T07:31:00.334Z,24.40
2019-04-11T07:33:35.386Z,25.92
2019-04-11T07:36:10.386Z,24.72
2019-04-11T07:38:43.366Z,25.23
2019-04-11T07:41:17.705Z,26.52
2019-04-11T07:43:49.991Z,24.50
2019-04-11T07:46:27.221Z,24.23
2019-04-11T07:48:59.501Z,24.55
2019-04-11T07:51:32.216Z,24.07
2019-04-11T07:54:07.390Z,24.47
2019-04-11T07:56:41.925Z,22.73
2019-04-11T07:59:14.971Z,24.45
2019-04-11T08:01:47.050Z,25.85
2019-04-11T08:04:21.675Z,23.50
2019-04-11T08:09:26.992Z,24.37
2019-04-11T08:12:00.438Z,24.77
2019-04-11T08:14:34.847Z,23.75
2019-04-11T08:17:09.277Z,27.02
2019-04-11T08:19:42.970Z,22.37
2019-04-11T08:22:17.065Z,22.80
2019-04-11T08:24:51.150Z,23.22
2019-04-11T08:27:25.327Z,23.50
2019-04-11T08:29:58.854Z,22.93
2019-04-11T08:32:33.794Z,22.42
2019-04-11T08:35:06.624Z,23.85
2019-04-11T08:37:43.441Z,27.17
2019-04-11T08:40:17.718Z,21.50
2019-04-11T08:42:50.866Z,23.42
2019-04-11T08:45:24.229Z,24.55
2019-04-11T08:47:58.777Z,22.98
2019-04-11T08:50:31.851Z,25.25
2019-04-11T08:53:04.706Z,23.00
2019-04-11T08:55:48.653Z,21.90
2019-04-11T08:58:14.079Z,22.73
2019-04-11T09:00:49.000Z,23.07
2019-04-11T09:03:24.385Z,23.87
2019-04-11T09:05:58.175Z,23.00
2019-04-11T09:08:34.355Z,22.77
2019-04-11T09:11:08.626Z,23.12
2019-04-11T09:13:44.002Z,22.13
2019-04-11T09:16:17.200Z,23.15
2019-04-11T09:18:52.441Z,22.95
2019-04-11T09:21:26.531Z,20.88
2019-04-11T09:23:58.043Z,20.75
2019-04-11T09:26:32.102Z,20.85
2019-04-11T09:29:06.927Z,22.05
2019-04-11T09:31:41.731Z,21.17
2019-04-11T09:34:16.142Z,22.40
2019-04-11T09:36:49.636Z,20.82
2019-04-11T09:39:23.458Z,21.02
2019-04-11T09:41:57.210Z,20.33
2019-04-11T09:44:31.126Z,21.57
2019-04-11T09:47:05.434Z,20.57
2019-04-11T09:49:39.603Z,20.45
2019-04-11T09:52:16.223Z,19.95
2019-04-11T09:54:50.599Z,20.20
2019-04-11T09:57:24.871Z,19.77
2019-04-11T10:00:01.938Z,19.73
2019-04-11T10:02:41.840Z,21.48
2019-04-11T10:05:15.878Z,20.72
2019-04-11T10:07:48.624Z,20.30
2019-04-11T10:10:24.288Z,19.30
2019-04-11T10:12:58.894Z,19.55
2019-04-11T10:15:33.734Z,21.37
2019-04-11T10:18:19.562Z,18.57
2019-04-11T10:20:45.786Z,19.52
2019-04-11T10:23:18.700Z,19.50
2019-04-11T10:25:51.650Z,18.98
2019-04-11T10:28:25.523Z,19.20
2019-04-11T10:30:58.922Z,19.30
2019-04-11T10:33:31.049Z,19.05
2019-04-11T10:36:07.127Z,22.10
2019-04-11T10:38:44.774Z,18.92
2019-04-11T10:41:18.673Z,22.65
2019-04-11T10:43:53.678Z,19.00
2019-04-11T10:46:31.331Z,21.17
2019-04-11T10:49:05.295Z,19.70
2019-04-11T10:51:40.714Z,21.85
2019-04-11T10:54:15.612Z,22.75
2019-04-11T10:56:49.790Z,20.35
2019-04-11T10:59:26.739Z,29.85
2019-04-11T11:02:00.164Z,25.92
2019-04-11T11:04:36.644Z,25.92
2019-04-11T11:07:13.001Z,19.35
2019-04-11T11:09:46.626Z,23.77
2019-04-11T11:15:11.352Z,23.00
2019-04-11T11:18:12.639Z,21.17
2019-04-11T11:20:26.808Z,22.93
2019-04-11T11:22:55.872Z,18.87
2019-04-11T11:25:30.932Z,22.07
2019-04-11T11:28:05.701Z,21.95
2019-04-11T11:30:39.917Z,20.82
2019-04-11T11:33:18.151Z,22.07
2019-04-11T11:35:51.967Z,23.87
2019-04-11T11:38:26.055Z,29.65
2019-04-11T11:41:02.473Z,23.90
2019-04-11T11:43:35.114Z,21.07
2019-04-11T11:46:07.709Z,22.37
2019-04-11T11:48:46.404Z,25.23
2019-04-11T11:51:17.280Z,23.77
2019-04-11T11:53:51.018Z,22.85
2019-04-11T11:56:24.847Z,26.40
2019-04-11T11:59:01.111Z,21.55
2019-04-11T12:01:33.946Z,22.77
2019-04-11T12:04:08.595Z,23.05
2019-04-11T12:06:44.596Z,21.80
2019-04-11T12:09:18.249Z,24.77
2019-04-11T12:11:53.725Z,22.45
2019-04-11T12:14:27.576Z,25.72
2019-04-11T12:17:03.241Z,22.37
2019-04-11T12:19:44.674Z,21.82
2019-04-11T12:22:09.023Z,22.10
2019-04-11T12:24:42.987Z,24.72
2019-04-11T12:27:16.777Z,27.27
2019-04-11T12:29:50.087Z,24.67
2019-04-11T12:32:22.428Z,24.20
2019-04-11T12:34:55.481Z,26.85
2019-04-11T12:37:29.547Z,26.62
2019-04-11T12:40:04.364Z,25.88
2019-04-11T12:42:38.027Z,25.60
2019-04-11T12:45:13.538Z,24.70
2019-04-11T12:47:46.923Z,30.48
2019-04-11T12:50:20.465Z,31.15
2019-04-11T12:52:55.762Z,36.17
2019-04-11T12:55:29.884Z,32.13
2019-04-11T12:58:04.691Z,30.20
2019-04-11T13:00:38.507Z,30.77
2019-04-11T13:03:11.835Z,30.17
2019-04-11T13:05:45.735Z,33.35
2019-04-11T13:08:19.107Z,28.57
2019-04-11T13:10:51.092Z,30.02
2019-04-11T13:13:25.585Z,32.58
2019-04-11T13:15:58.997Z,31.95
2019-04-11T13:18:32.825Z,29.02
2019-04-11T13:21:07.786Z,28.27
2019-04-11T13:23:41.246Z,30.12
2019-04-11T13:26:14.696Z,34.67
2019-04-11T13:28:48.242Z,30.97
2019-04-11T13:31:22.250Z,35.95
2019-04-11T13:33:55.937Z,30.13
2019-04-11T13:36:29.367Z,33.45
2019-04-11T13:39:04.229Z,35.38
2019-04-11T13:41:39.347Z,33.60
2019-04-11T13:44:11.949Z,35.83
2019-04-11T13:46:45.898Z,40.15
2019-04-11T13:49:20.264Z,37.30
2019-04-11T13:51:55.378Z,37.00
2019-04-11T13:54:28.751Z,37.78
2019-04-11T13:57:02.734Z,36.90
2019-04-11T13:59:39.209Z,39.42
2019-04-11T14:02:17.859Z,37.95
2019-04-11T14:04:54.464Z,38.70
2019-04-11T14:07:29.934Z,41.55
2019-04-11T14:10:04.076Z,39.05
2019-04-11T14:12:37.938Z,37.25
2019-04-11T14:15:11.271Z,42.55
2019-04-11T14:17:45.112Z,36.93
2019-04-11T14:20:28.679Z,41.33
2019-04-11T14:22:52.628Z,37.03
2019-04-11T14:25:25.924Z,37.13
2019-04-11T14:27:59.161Z,40.10
2019-04-11T14:30:39.026Z,36.63
2019-04-11T14:33:14.035Z,41.70
2019-04-11T14:35:47.904Z,35.70
2019-04-11T14:38:22.799Z,35.03
2019-04-11T14:41:01.575Z,40.55
2019-04-11T14:43:28.568Z,39.53
2019-04-11T14:46:06.880Z,42.83
2019-04-11T14:48:41.618Z,35.95
2019-04-11T14:51:17.825Z,38.53
2019-04-11T14:53:51.716Z,39.03
2019-04-11T14:56:27.145Z,38.53
2019-04-11T14:59:01.042Z,37.03
2019-04-11T15:01:35.729Z,37.95
2019-04-11T15:04:08.580Z,33.13
2019-04-11T15:06:44.576Z,36.60
2019-04-11T15:09:20.268Z,35.70
2019-04-11T15:11:54.018Z,31.95
2019-04-11T15:14:27.652Z,32.85
2019-04-11T15:17:00.858Z,35.15
2019-04-11T15:19:35.419Z,34.55
2019-04-11T15:22:09.166Z,31.95
2019-04-11T15:24:44.378Z,34.45
2019-04-11T15:27:19.762Z,33.67
2019-04-11T15:29:53.804Z,36.77
2019-04-11T15:32:27.233Z,28.02
2019-04-11T15:35:01.330Z,30.50
2019-04-11T15:37:32.739Z,26.82
2019-04-11T15:40:06.714Z,27.35
2019-04-11T15:42:40.576Z,29.30
2019-04-11T15:45:15.294Z,29.12
2019-04-11T15:47:49.359Z,28.23
2019-04-11T15:50:25.109Z,32.83
2019-04-11T15:52:57.560Z,29.45
2019-04-11T15:55:32.318Z,28.50
2019-04-11T15:58:07.562Z,29.87
2019-04-11T16:00:43.609Z,32.78
2019-04-11T16:03:16.455Z,28.35
2019-04-11T16:05:50.064Z,27.57
2019-04-11T16:08:26.247Z,26.90
2019-04-11T16:11:03.044Z,26.87
2019-04-11T16:13:40.263Z,25.82
2019-04-11T16:16:12.771Z,29.98
2019-04-11T16:18:49.258Z,25.60
2019-04-11T16:21:24.285Z,24.95
2019-04-11T16:23:57.721Z,24.40
2019-04-11T16:26:30.253Z,29.50
2019-04-11T16:29:08.551Z,26.95
2019-04-11T16:31:40.162Z,27.67
2019-04-11T16:34:15.842Z,26.48
2019-04-11T16:36:49.264Z,26.97
2019-04-11T16:39:22.801Z,29.75
2019-04-11T16:42:01.057Z,25.62
2019-04-11T16:44:34.765Z,29.32
2019-04-11T16:47:08.701Z,30.72
2019-04-11T16:49:43.912Z,25.92
2019-04-11T16:52:15.068Z,26.27
2019-04-11T16:54:46.221Z,30.50
2019-04-11T16:57:18.729Z,26.60
2019-04-11T16:59:50.328Z,29.55
2019-04-11T17:02:24.922Z,26.30
2019-04-11T17:04:57.511Z,28.83
2019-04-11T17:07:31.435Z,25.72
2019-04-11T17:12:57.537Z,26.60
2019-04-11T17:15:32.713Z,25.95
2019-04-11T17:20:39.573Z,26.77
2019-04-11T17:23:10.014Z,30.05
2019-04-11T17:25:42.196Z,25.02
2019-04-11T17:28:14.698Z,26.15
2019-04-11T17:30:47.036Z,26.68
2019-04-11T17:33:19.293Z,25.57
2019-04-11T17:35:50.442Z,25.43
2019-04-11T17:38:25.300Z,26.97
2019-04-11T17:40:57.243Z,25.35
2019-04-11T17:43:28.399Z,24.72
2019-04-11T17:46:00.850Z,27.07
2019-04-11T17:48:34.986Z,24.05
2019-04-11T17:51:09.602Z,25.35
2019-04-11T17:53:40.937Z,27.67
2019-04-11T17:56:13.348Z,24.87
2019-04-11T17:58:45.628Z,26.97
2019-04-11T18:01:18.254Z,24.92
2019-04-11T18:03:50.499Z,26.77
2019-04-11T18:06:22.758Z,32.70
2019-04-11T18:08:56.335Z,24.63
2019-04-11T18:11:27.526Z,25.62
2019-04-11T18:14:00.750Z,26.93
2019-04-11T18:16:36.764Z,24.75
2019-04-11T18:19:11.057Z,28.45
2019-04-11T18:21:43.384Z,27.90
2019-04-11T18:24:19.738Z,25.82
2019-04-11T18:26:51.941Z,25.10
2019-04-11T18:29:25.300Z,26.30
2019-04-11T18:31:56.643Z,24.23
2019-04-11T18:34:31.734Z,24.40
2019-04-11T18:37:09.501Z,25.05
2019-04-11T18:39:41.465Z,24.43
2019-04-11T18:42:12.721Z,24.47
2019-04-11T18:44:47.353Z,23.52
2019-04-11T18:47:18.634Z,25.72
2019-04-11T18:49:53.275Z,22.93
2019-04-11T18:52:27.681Z,24.07
2019-04-11T18:54:59.136Z,27.67
2019-04-11T18:57:31.482Z,24.15
2019-04-11T19:00:07.099Z,25.80
2019-04-11T19:02:37.944Z,24.67
2019-04-11T19:05:10.893Z,24.32
2019-04-11T19:07:44.837Z,25.55
2019-04-11T19:10:16.484Z,25.70
2019-04-11T19:12:48.589Z,25.80
2019-04-11T19:15:28.347Z,22.80
2019-04-11T19:18:06.116Z,24.82
2019-04-11T19:20:37.371Z,22.70
2019-04-11T19:23:12.435Z,23.80
2019-04-11T19:25:46.601Z,22.60
2019-04-11T19:28:19.781Z,22.15
2019-04-11T19:30:58.845Z,23.12
2019-04-11T19:33:34.006Z,25.60
2019-04-11T19:36:07.377Z,24.18
2019-04-11T19:38:42.977Z,23.50
2019-04-11T19:41:17.302Z,22.67
2019-04-11T19:43:49.137Z,23.85
2019-04-11T19:46:20.465Z,24.15
2019-04-11T19:48:57.049Z,22.62
2019-04-11T19:51:28.972Z,23.07
2019-04-11T19:54:02.950Z,23.57
2019-04-11T19:56:37.549Z,23.47
2019-04-11T20:01:45.312Z,24.05
2019-04-11T20:04:19.133Z,22.85
2019-04-11T20:06:52.794Z,21.97
2019-04-11T20:09:25.826Z,23.63
2019-04-11T20:11:57.936Z,23.15
2019-04-11T20:14:34.067Z,24.02
2019-04-11T20:17:04.406Z,26.80
2019-04-11T20:19:36.605Z,25.70
2019-04-11T20:22:08.642Z,27.73
2019-04-11T20:24:45.992Z,23.98
2019-04-11T20:27:13.437Z,23.25
2019-04-11T20:29:46.167Z,24.00
2019-04-11T20:32:18.618Z,23.87
2019-04-11T20:34:51.269Z,26.35
2019-04-11T20:37:24.614Z,24.50
2019-04-11T20:39:56.953Z,24.05
2019-04-11T20:42:29.057Z,22.10
2019-04-11T20:45:01.556Z,21.97
2019-04-11T20:47:32.913Z,24.15
2019-04-11T20:50:07.642Z,24.50
2019-04-11T20:52:41.113Z,21.93
2019-04-11T20:55:13.053Z,21.70
2019-04-11T20:57:45.236Z,23.07
2019-04-11T21:00:17.996Z,23.90
2019-04-11T21:02:50.260Z,23.25
2019-04-11T21:05:21.718Z,24.77
2019-04-11T21:07:53.919Z,22.75
2019-04-11T21:10:26.233Z,26.57
2019-04-11T21:13:00.501Z,24.12
2019-04-11T21:15:32.467Z,25.62
2019-04-11T21:18:06.416Z,26.45
2019-04-11T21:20:39.623Z,25.62
2019-04-11T21:23:23.640Z,25.00
2019-04-11T21:25:45.709Z,24.27
2019-04-11T21:28:16.811Z,27.05
2019-04-11T21:30:52.204Z,25.37
2019-04-11T21:33:23.419Z,26.52
2019-04-11T21:35:57.575Z,27.15
2019-04-11T21:38:30.923Z,27.07
2019-04-11T21:41:01.321Z,26.57
2019-04-11T21:43:35.846Z,26.93
2019-04-11T21:46:06.810Z,26.52
2019-04-11T21:48:39.355Z,30.48
2019-04-11T21:51:11.339Z,28.30
2019-04-11T21:53:45.138Z,28.75
2019-04-11T21:56:18.631Z,28.67
2019-04-11T21:58:50.718Z,27.70
2019-04-11T22:01:24.269Z,27.00
2019-04-11T22:03:57.680Z,26.82
2019-04-11T22:06:30.328Z,26.93
2019-04-11T22:09:04.867Z,30.95
2019-04-11T22:11:33.090Z,28.12
2019-04-11T22:14:05.117Z,26.82
2019-04-11T22:16:44.487Z,28.90
2019-04-11T22:19:15.894Z,27.87
2019-04-11T22:21:46.975Z,26.07
2019-04-11T22:24:18.426Z,25.40
2019-04-11T22:26:50.611Z,31.02
2019-04-11T22:29:24.833Z,26.97
2019-04-11T22:31:57.357Z,29.35
2019-04-11T22:34:30.145Z,29.02
2019-04-11T22:37:02.110Z,30.45
2019-04-11T22:39:34.661Z,27.35
2019-04-11T22:42:06.883Z,28.60
2019-04-11T22:44:39.003Z,33.30
2019-04-11T22:47:11.109Z,30.90
2019-04-11T22:49:43.350Z,26.50
2019-04-11T22:52:14.491Z,27.98
2019-04-11T22:54:47.010Z,30.17
2019-04-11T22:57:19.338Z,55.10
2019-04-11T22:59:51.142Z,53.00
2019-04-11T23:02:24.284Z,34.13
2019-04-11T23:04:55.321Z,35.33
2019-04-11T23:07:27.834Z,34.90
2019-04-11T23:10:00.057Z,41.42
2019-04-11T23:12:32.218Z,34.95
2019-04-11T23:15:04.027Z,29.37
2019-04-11T23:17:37.945Z,35.00
2019-04-11T23:20:14.444Z,30.50
2019-04-11T23:22:45.533Z,29.30
2019-04-11T23:25:20.122Z,29.95
2019-04-11T23:27:54.035Z,31.87
2019-04-11T23:30:25.189Z,36.95
2019-04-11T23:33:00.965Z,58.45
2019-04-11T23:35:32.022Z,45.58
2019-04-11T23:38:03.235Z,61.48
2019-04-11T23:40:35.166Z,48.58
2019-04-11T23:43:07.316Z,36.05
2019-04-11T23:45:41.274Z,33.20
2019-04-11T23:48:13.692Z,40.55
2019-04-11T23:50:45.032Z,42.40
2019-04-11T23:53:16.160Z,44.13
2019-04-11T23:55:49.683Z,33.25
2019-04-11T23:58:21.786Z,30.23
